Time;durP1;ratioP1;P1;durP2;ratioP2;P2;SDS_P1;SDS_P2;PMS_P1;PMS_P2;Temp;Humidity;BMP_temperature;BMP_pressure;BME280_temperature;BME280_humidity;BME280_pressure;Samples;Min_cycle;Max_cycle;Signal;HPM_P1;HPM_P2
2023/02/06 00:00:33;;;;;;;8.57;4.63;;;-5.80;99.90;;;;;;5038972;28;20052;-57
2023/02/06 00:02:59;;;;;;;13.02;5.90;;;-5.80;99.90;;;;;;5031517;28;20033;-56
2023/02/06 00:05:24;;;;;;;12.15;5.63;;;-5.80;99.90;;;;;;5029165;28;20029;-57
2023/02/06 00:07:50;;;;;;;12.10;6.35;;;-5.80;99.90;;;;;;5039891;28;20044;-57
2023/02/06 00:10:15;;;;;;;12.95;5.75;;;-5.80;99.90;;;;;;5034159;28;20044;-57
2023/02/06 00:12:41;;;;;;;11.77;5.65;;;-5.80;99.90;;;;;;5034129;28;20052;-57
2023/02/06 00:15:07;;;;;;;10.80;5.63;;;-5.90;99.90;;;;;;5041629;28;20043;-56
2023/02/06 00:17:36;;;;;;;10.52;5.20;;;-5.80;99.90;;;;;;5043539;28;20029;-56
2023/02/06 00:20:04;;;;;;;10.52;4.55;;;-5.90;99.90;;;;;;5041903;28;20071;-56
2023/02/06 00:22:29;;;;;;;15.85;6.65;;;-5.90;99.90;;;;;;5039921;28;20031;-57
2023/02/06 00:24:55;;;;;;;11.65;5.25;;;-5.90;99.90;;;;;;5042486;28;20029;-56
2023/02/06 00:27:20;;;;;;;12.50;6.05;;;-5.90;99.90;;;;;;5037425;28;20132;-57
2023/02/06 00:29:46;;;;;;;11.15;5.10;;;-6.00;99.90;;;;;;5046204;28;20087;-57
2023/02/06 00:32:11;;;;;;;11.32;5.53;;;-6.00;99.90;;;;;;5040834;28;20140;-57
2023/02/06 00:34:37;;;;;;;11.43;5.05;;;-6.00;99.90;;;;;;5047577;28;20059;-58
2023/02/06 00:37:02;;;;;;;10.82;4.65;;;-6.00;99.90;;;;;;5061516;28;20563;-57
2023/02/06 00:39:28;;;;;;;10.82;4.63;;;-6.00;99.90;;;;;;5048415;28;20329;-55
2023/02/06 00:41:54;;;;;;;9.77;4.80;;;-5.90;99.90;;;;;;5042594;28;20370;-55
2023/02/06 00:44:20;;;;;;;5.70;3.13;;;-5.90;99.90;;;;;;5045984;28;20028;-55
2023/02/06 00:46:46;;;;;;;12.07;4.97;;;-6.00;99.90;;;;;;5057219;28;20037;-56
2023/02/06 00:49:11;;;;;;;6.47;3.78;;;-5.90;99.90;;;;;;5049637;28;20583;-57
2023/02/06 00:51:38;;;;;;;10.43;4.57;;;-5.90;99.90;;;;;;5041993;28;20396;-57
2023/02/06 00:54:04;;;;;;;12.35;4.78;;;-5.90;99.90;;;;;;5049395;28;20025;-56
2023/02/06 00:56:29;;;;;;;9.02;3.95;;;-5.90;99.90;;;;;;5053115;28;20500;-57
2023/02/06 00:58:55;;;;;;;7.60;4.13;;;-5.90;99.90;;;;;;5049692;28;20080;-57
2023/02/06 01:01:20;;;;;;;14.30;4.95;;;-5.80;99.90;;;;;;5039570;28;20032;-58
2023/02/06 01:03:46;;;;;;;12.18;4.90;;;-5.80;99.90;;;;;;5048721;28;20025;-57
2023/02/06 01:06:11;;;;;;;11.32;6.07;;;-5.80;99.90;;;;;;5037898;28;20036;-61
2023/02/06 01:08:37;;;;;;;15.18;5.95;;;-5.80;99.90;;;;;;5029610;28;20104;-61
2023/02/06 01:11:12;;;;;;;13.73;5.72;;;-5.80;99.90;;;;;;5046523;28;20385;-61
2023/02/06 01:13:37;;;;;;;7.70;3.63;;;-5.70;99.90;;;;;;5028504;28;20515;-61
2023/02/06 01:16:07;;;;;;;12.93;5.57;;;-5.70;99.90;;;;;;5032861;28;20147;-56
2023/02/06 01:18:33;;;;;;;15.60;6.93;;;-5.70;99.90;;;;;;5048303;28;20032;-55
2023/02/06 01:20:58;;;;;;;15.20;6.03;;;-5.70;99.90;;;;;;5046344;28;20037;-54
2023/02/06 01:23:24;;;;;;;11.07;4.88;;;-5.70;99.90;;;;;;5067977;28;20032;-53
2023/02/06 01:25:50;;;;;;;11.63;4.85;;;-5.60;99.90;;;;;;5048877;28;20033;-56
2023/02/06 01:28:16;;;;;;;9.80;4.05;;;-5.60;99.90;;;;;;5045445;28;20032;-55
2023/02/06 01:30:41;;;;;;;10.32;4.75;;;-5.60;99.90;;;;;;5048599;28;20037;-56
2023/02/06 01:33:07;;;;;;;8.38;5.05;;;-5.60;99.90;;;;;;5063043;28;20025;-55
2023/02/06 01:35:32;;;;;;;10.20;4.55;;;-5.60;99.90;;;;;;5049275;28;20057;-54
2023/02/06 01:37:58;;;;;;;12.43;5.75;;;-5.60;99.90;;;;;;5043895;28;20396;-54
2023/02/06 01:40:23;;;;;;;10.15;5.32;;;-5.60;99.90;;;;;;5048733;28;20429;-55
2023/02/06 01:42:49;;;;;;;11.75;5.60;;;-5.60;99.90;;;;;;5056727;28;20029;-53
2023/02/06 01:45:20;;;;;;;10.65;4.57;;;-5.60;99.90;;;;;;5048861;28;20037;-54
2023/02/06 01:47:48;;;;;;;10.13;4.25;;;-5.60;99.90;;;;;;5041992;28;20033;-52
2023/02/06 01:50:13;;;;;;;13.32;5.65;;;-5.60;99.90;;;;;;5048373;28;20033;-52
2023/02/06 01:52:39;;;;;;;11.95;4.75;;;-5.60;99.90;;;;;;5055091;28;20111;-55
2023/02/06 01:55:05;;;;;;;12.20;4.25;;;-5.60;99.90;;;;;;5049107;28;20032;-55
2023/02/06 01:57:32;;;;;;;11.82;5.40;;;-5.60;99.90;;;;;;5056914;28;20108;-56
2023/02/06 02:00:03;;;;;;;15.73;6.00;;;-5.60;99.90;;;;;;5048607;28;20489;-54
2023/02/06 02:02:31;;;;;;;12.05;5.38;;;-5.60;99.90;;;;;;5038960;28;20039;-53
2023/02/06 02:04:59;;;;;;;14.70;5.63;;;-5.60;99.90;;;;;;5039638;28;20112;-61
2023/02/06 02:07:31;;;;;;;10.82;4.10;;;-5.60;99.90;;;;;;5038469;28;20056;-61
2023/02/06 02:09:57;;;;;;;11.98;5.25;;;-5.70;99.90;;;;;;5028268;28;20123;-61
2023/02/06 02:12:22;;;;;;;9.40;4.72;;;-5.60;99.90;;;;;;5045381;28;20558;-60
2023/02/06 02:14:50;;;;;;;12.35;6.15;;;-5.60;99.90;;;;;;5048271;28;20029;-60
2023/02/06 02:17:35;;;;;;;12.60;5.32;;;-5.60;99.90;;;;;;5037064;28;20033;-59
2023/02/06 02:20:24;;;;;;;6.97;3.78;;;-5.70;99.90;;;;;;5047852;28;20040;-60
2023/02/06 02:23:08;;;;;;;11.02;4.65;;;-5.70;99.90;;;;;;5041771;28;20056;-59
2023/02/06 02:25:55;;;;;;;12.23;5.07;;;-5.70;99.90;;;;;;5047886;28;20032;-60
2023/02/06 02:28:48;;;;;;;11.95;5.18;;;-5.70;99.90;;;;;;5046293;28;20037;-59
2023/02/06 02:31:52;;;;;;;13.50;4.97;;;-5.80;99.90;;;;;;5028406;28;20664;-59
2023/02/06 02:34:48;;;;;;;10.60;5.05;;;-5.80;99.90;;;;;;5026282;28;20036;-60
2023/02/06 02:37:29;;;;;;;8.68;4.05;;;-5.90;99.90;;;;;;5035795;28;20040;-59
2023/02/06 02:40:05;;;;;;;10.23;5.38;;;-5.90;99.90;;;;;;5028109;28;20033;-58
2023/02/06 02:42:47;;;;;;;6.18;3.42;;;-5.90;99.90;;;;;;5038906;28;20037;-59
2023/02/06 02:45:32;;;;;;;8.95;4.50;;;-5.90;99.90;;;;;;5027859;28;20064;-60
2023/02/06 02:48:05;;;;;;;9.75;4.65;;;-5.90;99.90;;;;;;5042571;28;20479;-60
2023/02/06 02:50:32;;;;;;;10.73;3.67;;;-5.90;99.90;;;;;;5028006;28;20478;-58
2023/02/06 02:52:59;;;;;;;7.72;3.95;;;-5.90;99.90;;;;;;5045494;28;20055;-59
2023/02/06 02:55:25;;;;;;;8.82;4.15;;;-5.90;99.90;;;;;;5047640;28;20036;-59
2023/02/06 02:57:57;;;;;;;10.88;4.57;;;-5.90;99.90;;;;;;5057571;28;20024;-59
2023/02/06 03:00:24;;;;;;;11.20;5.00;;;-5.90;99.90;;;;;;5027894;28;20038;-58
2023/02/06 03:02:53;;;;;;;14.05;5.60;;;-5.80;99.90;;;;;;5045445;28;20044;-59
2023/02/06 03:05:23;;;;;;;11.65;4.68;;;-5.80;99.90;;;;;;5036302;28;20440;-59
2023/02/06 03:08:12;;;;;;;13.57;5.55;;;-5.60;99.90;;;;;;5041278;28;20120;-59
2023/02/06 03:10:45;;;;;;;8.98;4.63;;;-5.50;99.90;;;;;;5029145;28;20029;-58
2023/02/06 03:13:30;;;;;;;13.00;5.55;;;-5.40;99.90;;;;;;5038186;28;20045;-59
2023/02/06 03:16:04;;;;;;;8.13;4.30;;;-5.40;99.90;;;;;;5030157;28;20108;-60
2023/02/06 03:18:40;;;;;;;9.80;4.72;;;-5.20;99.90;;;;;;5047233;28;20052;-60
2023/02/06 03:21:09;;;;;;;13.80;5.40;;;-5.10;99.90;;;;;;5032920;28;20456;-60
2023/02/06 03:23:37;;;;;;;11.88;4.82;;;-5.10;99.90;;;;;;5047386;28;20592;-59
2023/02/06 03:26:06;;;;;;;11.13;4.60;;;-5.00;99.90;;;;;;5032576;28;20061;-60
2023/02/06 03:28:35;;;;;;;9.70;4.38;;;-4.90;99.90;;;;;;5047332;28;20028;-60
2023/02/06 03:31:05;;;;;;;9.75;4.57;;;-4.80;99.90;;;;;;5032195;28;20108;-60
2023/02/06 03:33:36;;;;;;;11.10;4.97;;;-4.70;99.90;;;;;;5047204;28;20021;-58
2023/02/06 03:36:04;;;;;;;13.00;5.18;;;-4.70;99.90;;;;;;5032608;28;20039;-59
2023/02/06 03:38:30;;;;;;;10.95;5.40;;;-4.60;99.90;;;;;;5050615;28;20403;-58
2023/02/06 03:40:58;;;;;;;12.48;4.80;;;-4.50;99.90;;;;;;5035187;28;20020;-59
2023/02/06 03:43:25;;;;;;;13.75;4.93;;;-4.40;99.90;;;;;;5050864;28;20032;-57
2023/02/06 03:45:59;;;;;;;8.68;4.15;;;-4.40;99.90;;;;;;5034223;28;20063;-58
2023/02/06 03:48:41;;;;;;;13.98;5.53;;;-4.30;99.90;;;;;;5050634;28;20036;-58
2023/02/06 03:51:32;;;;;;;10.68;4.45;;;-4.20;99.90;;;;;;5034989;28;20037;-58
2023/02/06 03:53:59;;;;;;;11.75;4.90;;;-4.10;99.90;;;;;;5030561;28;20194;-59
2023/02/06 03:56:36;;;;;;;9.25;4.13;;;-4.10;99.90;;;;;;5047913;28;20043;-58
2023/02/06 03:59:01;;;;;;;14.05;5.28;;;-4.00;99.90;;;;;;5030705;28;20029;-59
2023/02/06 04:01:27;;;;;;;8.90;4.10;;;-3.90;99.90;;;;;;5047556;28;20725;-58
2023/02/06 04:03:53;;;;;;;13.57;6.30;;;-3.90;99.90;;;;;;5030834;28;20464;-59
2023/02/06 04:06:18;;;;;;;11.93;4.75;;;-3.80;99.90;;;;;;5043128;28;20025;-59
2023/02/06 04:08:44;;;;;;;16.02;6.10;;;-3.80;99.90;;;;;;5029270;28;20049;-59
2023/02/06 04:11:09;;;;;;;11.90;5.25;;;-3.70;99.90;;;;;;5055105;28;20040;-59
2023/02/06 04:13:35;;;;;;;7.65;4.10;;;-3.70;99.90;;;;;;5050681;28;20041;-59
2023/02/06 04:16:01;;;;;;;14.27;5.32;;;-3.60;99.90;;;;;;5041974;28;20086;-59
2023/02/06 04:18:27;;;;;;;14.75;5.80;;;-3.60;99.90;;;;;;5070175;28;20029;-57
2023/02/06 04:20:52;;;;;;;9.63;4.97;;;-3.50;99.90;;;;;;5048709;28;20395;-58
2023/02/06 04:23:19;;;;;;;12.25;5.72;;;-3.50;99.90;;;;;;5048993;28;20028;-59
2023/02/06 04:25:45;;;;;;;12.02;5.03;;;-3.40;99.90;;;;;;5052127;28;20037;-59
2023/02/06 04:28:11;;;;;;;9.50;5.95;;;-3.40;99.90;;;;;;5068174;28;20036;-59
2023/02/06 04:30:36;;;;;;;12.00;5.63;;;-3.30;99.90;;;;;;5050781;28;20530;-59
2023/02/06 04:33:02;;;;;;;13.75;5.60;;;-3.30;99.90;;;;;;5044837;28;20036;-58
2023/02/06 04:35:28;;;;;;;11.43;5.30;;;-3.30;99.90;;;;;;5049899;28;20033;-58
2023/02/06 04:37:53;;;;;;;13.85;5.40;;;-3.20;99.90;;;;;;5057329;28;20051;-58
2023/02/06 04:40:19;;;;;;;13.05;5.10;;;-3.20;99.90;;;;;;5050472;28;20108;-59
2023/02/06 04:42:45;;;;;;;10.23;4.63;;;-3.10;99.90;;;;;;5042172;28;20039;-59
2023/02/06 04:45:11;;;;;;;14.95;6.10;;;-3.10;99.90;;;;;;5049587;28;20396;-58
2023/02/06 04:47:36;;;;;;;11.65;6.03;;;-3.10;99.90;;;;;;5052725;28;20036;-57
2023/02/06 04:50:03;;;;;;;16.95;7.10;;;-3.00;99.90;;;;;;5050200;28;20067;-59
2023/02/06 04:52:28;;;;;;;13.82;6.43;;;-3.00;99.90;;;;;;5035537;28;20751;-61
2023/02/06 04:54:54;;;;;;;11.07;5.18;;;-3.00;99.90;;;;;;5033805;28;20041;-62
2023/02/06 04:57:19;;;;;;;8.23;4.65;;;-2.90;99.90;;;;;;5048885;28;20103;-62
2023/02/06 04:59:45;;;;;;;13.60;5.53;;;-2.90;99.90;;;;;;5040358;28;20029;-62
2023/02/06 05:02:10;;;;;;;15.50;6.10;;;-2.90;99.90;;;;;;5029429;28;20080;-61
2023/02/06 05:04:37;;;;;;;10.93;5.78;;;-2.90;99.90;;;;;;5046543;28;20033;-60
2023/02/06 05:07:03;;;;;;;11.73;5.60;;;-2.90;99.90;;;;;;5044293;28;20112;-61
2023/02/06 05:09:28;;;;;;;11.35;5.85;;;-2.80;99.90;;;;;;5030143;28;20217;-61
2023/02/06 05:11:54;;;;;;;8.55;4.50;;;-2.70;99.90;;;;;;5049259;28;20029;-61
2023/02/06 05:14:20;;;;;;;11.18;5.15;;;-2.70;99.90;;;;;;5029056;28;20053;-61
2023/02/06 05:16:45;;;;;;;13.93;5.70;;;-2.70;99.90;;;;;;5048136;28;20385;-62
2023/02/06 05:19:11;;;;;;;10.32;5.32;;;-2.60;99.90;;;;;;5028406;28;20398;-62
2023/02/06 05:21:36;;;;;;;13.27;6.70;;;-2.60;99.90;;;;;;5045071;28;20037;-62
2023/02/06 05:24:02;;;;;;;12.18;5.45;;;-2.50;99.90;;;;;;5027966;28;20428;-62
2023/02/06 05:26:27;;;;;;;13.45;6.35;;;-2.50;99.90;;;;;;5032602;28;20033;-61
2023/02/06 05:28:53;;;;;;;15.88;7.20;;;-2.50;99.90;;;;;;5047152;28;20021;-61
2023/02/06 05:31:18;;;;;;;16.73;7.63;;;-2.50;99.90;;;;;;5044053;28;20433;-63
2023/02/06 05:33:46;;;;;;;11.18;5.82;;;-2.40;99.90;;;;;;5038579;28;20075;-61
2023/02/06 05:36:12;;;;;;;10.70;5.20;;;-2.40;99.90;;;;;;5043310;28;20116;-60
2023/02/06 05:38:38;;;;;;;12.07;6.32;;;-2.30;99.90;;;;;;5037509;28;20060;-61
2023/02/06 05:41:04;;;;;;;14.13;6.78;;;-2.30;99.90;;;;;;5044599;28;20393;-62
2023/02/06 05:43:30;;;;;;;11.07;5.63;;;-2.20;99.90;;;;;;5037961;28;20111;-63
2023/02/06 05:45:55;;;;;;;12.45;5.35;;;-2.20;99.90;;;;;;5049114;28;20129;-63
2023/02/06 05:48:20;;;;;;;11.43;5.05;;;-2.20;99.90;;;;;;5031898;28;20040;-63
2023/02/06 05:50:50;;;;;;;11.10;5.32;;;-2.10;99.90;;;;;;5048945;28;20040;-63
2023/02/06 05:53:17;;;;;;;13.07;5.82;;;-2.10;99.90;;;;;;5031260;28;20508;-63
2023/02/06 05:55:42;;;;;;;10.20;4.72;;;-2.10;99.90;;;;;;5048947;28;20021;-63
2023/02/06 05:58:08;;;;;;;16.15;6.60;;;-2.00;99.90;;;;;;5032661;28;20504;-63
2023/02/06 06:00:33;;;;;;;13.43;6.45;;;-2.00;99.90;;;;;;5048511;28;20376;-63
2023/02/06 06:02:59;;;;;;;13.20;5.65;;;-2.00;99.90;;;;;;5046625;28;20082;-63
2023/02/06 06:05:24;;;;;;;11.40;5.47;;;-1.90;99.90;;;;;;5042197;28;20667;-62
2023/02/06 06:07:50;;;;;;;18.92;6.32;;;-1.90;99.90;;;;;;5029434;28;20104;-63
2023/02/06 06:10:15;;;;;;;16.05;6.25;;;-1.90;99.90;;;;;;5045916;28;20033;-63
2023/02/06 06:12:41;;;;;;;12.63;6.25;;;-1.90;99.90;;;;;;5033480;28;20064;-63
2023/02/06 06:15:07;;;;;;;12.73;5.80;;;-1.80;99.90;;;;;;5047036;28;20025;-57
2023/02/06 06:17:32;;;;;;;14.48;6.55;;;-1.80;99.90;;;;;;5048391;28;20033;-57
2023/02/06 06:19:58;;;;;;;16.70;6.95;;;-1.80;99.90;;;;;;5033156;28;20094;-57
2023/02/06 06:22:23;;;;;;;13.70;6.65;;;-1.80;99.90;;;;;;5048774;28;20096;-56
2023/02/06 06:24:49;;;;;;;11.57;5.65;;;-1.80;99.90;;;;;;5031938;28;20523;-57
2023/02/06 06:27:14;;;;;;;16.05;5.80;;;-1.70;99.90;;;;;;5048244;28;20105;-54
2023/02/06 06:29:39;;;;;;;13.50;6.15;;;-1.70;99.90;;;;;;5030513;28;20480;-57
2023/02/06 06:32:05;;;;;;;14.18;6.57;;;-1.70;99.90;;;;;;5048479;28;20064;-57
2023/02/06 06:34:31;;;;;;;14.05;7.05;;;-1.60;99.90;;;;;;5029299;28;20079;-53
2023/02/06 06:36:56;;;;;;;17.40;6.70;;;-1.60;99.90;;;;;;5048212;28;20040;-57
2023/02/06 06:39:22;;;;;;;11.30;5.72;;;-1.60;99.90;;;;;;5028185;28;20068;-56
2023/02/06 06:41:47;;;;;;;14.35;7.03;;;-1.60;99.90;;;;;;5048418;28;20039;-56
2023/02/06 06:44:13;;;;;;;14.52;5.82;;;-1.60;99.90;;;;;;5027734;28;20037;-57
2023/02/06 06:46:38;;;;;;;17.42;7.05;;;-1.50;99.90;;;;;;5028175;28;20108;-54
2023/02/06 06:49:04;;;;;;;13.75;6.78;;;-1.50;99.90;;;;;;5047500;28;20033;-49
2023/02/06 06:51:30;;;;;;;14.15;7.22;;;-1.50;99.90;;;;;;5064308;28;20036;-54
2023/02/06 06:53:56;;;;;;;15.57;7.55;;;-1.50;99.90;;;;;;5048511;28;20033;-57
2023/02/06 06:56:22;;;;;;;12.77;5.97;;;-1.50;99.90;;;;;;5044677;28;20040;-55
2023/02/06 06:58:48;;;;;;;17.83;7.57;;;-1.40;99.90;;;;;;5047881;28;20111;-52
2023/02/06 07:01:14;;;;;;;14.32;6.80;;;-1.40;99.90;;;;;;5059880;28;20029;-53
2023/02/06 07:03:43;;;;;;;16.75;7.32;;;-1.40;99.90;;;;;;5062547;28;20032;-53
2023/02/06 07:06:09;;;;;;;13.40;6.32;;;-1.40;99.90;;;;;;5045583;28;20025;-54
2023/02/06 07:08:40;;;;;;;15.52;6.80;;;-1.40;99.90;;;;;;5042004;28;20028;-57
2023/02/06 07:11:07;;;;;;;16.48;7.82;;;-1.30;99.90;;;;;;5028988;28;20146;-57
2023/02/06 07:13:32;;;;;;;17.92;7.45;;;-1.30;99.90;;;;;;5049646;28;20045;-57
2023/02/06 07:15:57;;;;;;;15.88;7.40;;;-1.30;99.90;;;;;;5051817;28;20029;-58
2023/02/06 07:18:23;;;;;;;16.73;7.07;;;-1.20;99.90;;;;;;5057583;28;20036;-54
2023/02/06 07:20:50;;;;;;;13.75;7.13;;;-1.20;99.90;;;;;;5052542;28;20503;-54
2023/02/06 07:23:16;;;;;;;13.30;6.88;;;-1.10;99.90;;;;;;5042784;28;20108;-55
2023/02/06 07:25:41;;;;;;;15.90;7.65;;;-1.10;99.90;;;;;;5050449;28;20120;-55
2023/02/06 07:28:07;;;;;;;15.82;6.82;;;-1.10;99.90;;;;;;5053166;28;20103;-55
2023/02/06 07:30:33;;;;;;;14.50;7.43;;;-1.10;99.90;;;;;;5050829;28;20075;-54
2023/02/06 07:32:58;;;;;;;14.57;6.68;;;-1.10;99.90;;;;;;5050396;28;20803;-56
2023/02/06 07:35:24;;;;;;;11.63;7.90;;;-1.00;99.90;;;;;;5052186;28;20075;-55
2023/02/06 07:37:52;;;;;;;15.52;7.13;;;-1.00;99.90;;;;;;5038032;28;20035;-55
2023/02/06 07:40:18;;;;;;;21.75;10.07;;;-1.00;99.90;;;;;;5050178;28;20045;-57
2023/02/06 07:42:43;;;;;;;16.92;8.32;;;-1.00;99.90;;;;;;5038213;28;20021;-57
2023/02/06 07:45:09;;;;;;;19.05;8.05;;;-1.00;99.90;;;;;;5051412;28;20037;-55
2023/02/06 07:47:34;;;;;;;17.05;8.23;;;-1.00;99.90;;;;;;5036924;28;20040;-56
2023/02/06 07:50:00;;;;;;;15.27;8.18;;;-1.00;99.90;;;;;;5051474;28;20087;-57
2023/02/06 07:52:25;;;;;;;21.40;9.60;;;-0.90;99.90;;;;;;5049207;28;20489;-55
2023/02/06 07:54:51;;;;;;;17.73;9.10;;;-0.90;99.90;;;;;;5051516;28;20126;-55
2023/02/06 07:57:16;;;;;;;19.20;8.35;;;-0.80;99.90;;;;;;5034287;28;20033;-55
2023/02/06 07:59:42;;;;;;;12.52;7.57;;;-0.70;99.90;;;;;;5051207;28;20025;-55
2023/02/06 08:02:11;;;;;;;19.27;8.40;;;-0.60;99.90;;;;;;5050803;28;20076;-55
2023/02/06 08:04:36;;;;;;;20.02;9.70;;;-0.60;99.90;;;;;;5069587;28;20446;-53
2023/02/06 08:07:03;;;;;;;14.85;7.93;;;-0.60;99.90;;;;;;5048583;28;20036;-54
2023/02/06 08:09:29;;;;;;;14.10;7.55;;;-0.50;99.90;;;;;;5071198;28;20028;-55
2023/02/06 08:11:55;;;;;;;16.35;9.00;;;-0.50;99.90;;;;;;5050599;28;20021;-57
2023/02/06 08:14:20;;;;;;;17.77;9.00;;;-0.50;99.90;;;;;;5070978;28;20400;-55
2023/02/06 08:16:48;;;;;;;12.68;7.72;;;-0.50;99.90;;;;;;5049347;28;20033;-54
2023/02/06 08:19:13;;;;;;;16.08;7.97;;;-0.40;99.90;;;;;;5071026;28;20021;-53
2023/02/06 08:21:39;;;;;;;15.95;7.70;;;-0.40;99.90;;;;;;5051194;28;20107;-55
2023/02/06 08:24:05;;;;;;;14.68;7.60;;;-0.30;99.90;;;;;;5048562;28;20110;-55
2023/02/06 08:26:31;;;;;;;14.43;7.57;;;-0.40;99.90;;;;;;5050593;28;20099;-56
2023/02/06 08:28:59;;;;;;;14.60;7.93;;;-0.30;99.90;;;;;;5065483;28;20031;-56
2023/02/06 08:31:37;;;;;;;14.60;8.93;;;-0.30;99.90;;;;;;5050625;28;20690;-56
2023/02/06 08:34:03;;;;;;;14.32;7.82;;;-0.20;99.90;;;;;;5066928;28;20123;-55
2023/02/06 08:36:32;;;;;;;16.00;8.40;;;-0.20;99.90;;;;;;5050884;28;20025;-55
2023/02/06 08:38:59;;;;;;;19.10;9.75;;;-0.10;99.90;;;;;;5065362;28;20032;-55
2023/02/06 08:41:28;;;;;;;19.52;8.48;;;0.00;99.90;;;;;;5050800;28;20451;-54
2023/02/06 08:43:56;;;;;;;17.75;9.20;;;0.10;99.90;;;;;;5062697;28;20060;-54
2023/02/06 08:46:24;;;;;;;18.85;8.93;;;0.10;99.90;;;;;;5050605;28;20033;-54
2023/02/06 08:48:57;;;;;;;16.25;8.82;;;0.20;99.90;;;;;;5045907;28;20039;-55
2023/02/06 08:51:26;;;;;;;18.77;9.07;;;0.20;99.90;;;;;;5050239;28;20021;-55
2023/02/06 08:53:58;;;;;;;14.63;8.43;;;0.20;99.90;;;;;;5063476;28;20465;-55
2023/02/06 08:56:24;;;;;;;20.77;10.23;;;0.20;99.90;;;;;;5030238;28;20026;-53
2023/02/06 08:58:50;;;;;;;19.73;10.23;;;0.20;99.90;;;;;;5047776;28;20044;-56
2023/02/06 09:01:15;;;;;;;18.23;10.63;;;0.20;99.90;;;;;;5049956;28;20029;-56
2023/02/06 09:03:42;;;;;;;16.58;8.45;;;0.20;99.90;;;;;;5060524;28;20150;-54
2023/02/06 09:06:09;;;;;;;19.80;10.02;;;0.30;99.90;;;;;;5049866;28;20118;-53
2023/02/06 09:08:34;;;;;;;20.02;10.35;;;0.30;99.90;;;;;;5043519;28;20037;-55
2023/02/06 09:11:11;;;;;;;19.83;10.57;;;0.20;99.90;;;;;;5049632;28;20029;-54
2023/02/06 09:13:37;;;;;;;20.23;10.43;;;0.20;99.90;;;;;;5058686;28;20048;-54
2023/02/06 09:16:04;;;;;;;21.95;11.57;;;0.10;99.90;;;;;;5050156;28;20092;-54
2023/02/06 09:18:29;;;;;;;26.65;11.85;;;0.10;99.90;;;;;;5042688;28;20087;-55
2023/02/06 09:21:10;;;;;;;29.42;14.32;;;0.10;99.90;;;;;;5049505;28;20037;-55
2023/02/06 09:23:42;;;;;;;27.58;14.20;;;0.00;99.90;;;;;;5043179;28;20036;-55
2023/02/06 09:26:08;;;;;;;25.05;12.30;;;0.00;99.90;;;;;;5049460;28;20622;-55
2023/02/06 09:28:34;;;;;;;19.02;10.63;;;0.00;99.90;;;;;;5058217;28;20025;-57
2023/02/06 09:31:00;;;;;;;23.15;12.05;;;-0.10;99.90;;;;;;5050233;28;20400;-56
2023/02/06 09:33:25;;;;;;;24.45;14.48;;;-0.20;99.90;;;;;;5055239;28;20111;-57
2023/02/06 09:36:02;;;;;;;29.05;12.82;;;-0.20;99.90;;;;;;5049532;28;20033;-53
2023/02/06 09:38:28;;;;;;;26.85;13.85;;;-0.20;99.90;;;;;;5040579;28;20416;-55
2023/02/06 09:40:54;;;;;;;22.70;12.30;;;-0.20;99.90;;;;;;5049261;28;20025;-55
2023/02/06 09:43:20;;;;;;;24.02;12.70;;;-0.20;99.90;;;;;;5052888;28;20032;-55
2023/02/06 09:45:53;;;;;;;24.83;14.18;;;-0.20;99.90;;;;;;5049621;28;20033;-56
2023/02/06 09:48:23;;;;;;;21.88;12.40;;;-0.30;99.90;;;;;;5040578;28;20131;-54
2023/02/06 09:50:59;;;;;;;22.10;12.73;;;-0.30;99.90;;;;;;5047876;28;20033;-55
2023/02/06 09:53:35;;;;;;;20.25;11.00;;;-0.20;99.90;;;;;;5041010;28;20025;-55
2023/02/06 09:56:19;;;;;;;22.02;12.32;;;-0.30;99.90;;;;;;5029135;28;20405;-56
2023/02/06 09:59:04;;;;;;;22.30;11.95;;;-0.20;99.90;;;;;;5046285;28;20029;-54
2023/02/06 10:01:57;;;;;;;20.42;11.52;;;-0.30;99.90;;;;;;5029089;28;20051;-55
2023/02/06 10:04:29;;;;;;;22.45;11.75;;;-0.30;99.90;;;;;;5028990;28;20455;-55
2023/02/06 10:07:32;;;;;;;22.73;11.85;;;-0.20;99.90;;;;;;5025680;28;20118;-56
2023/02/06 10:10:03;;;;;;;21.02;11.52;;;-0.10;99.90;;;;;;5048884;28;20801;-55
2023/02/06 10:12:41;;;;;;;24.38;12.75;;;-0.10;99.90;;;;;;5032941;28;20049;-54
2023/02/06 10:15:10;;;;;;;28.13;14.77;;;-0.10;99.90;;;;;;5049034;28;20040;-57
2023/02/06 10:17:57;;;;;;;27.92;14.77;;;-0.10;99.90;;;;;;5053730;28;20074;-56
2023/02/06 10:20:33;;;;;;;26.48;15.13;;;-0.10;99.90;;;;;;5067677;28;20115;-57
2023/02/06 10:23:14;;;;;;;;;;;-0.20;99.90;;;;;;5057208;28;20020;-58
2023/02/06 10:25:48;;;;;;;26.65;14.70;;;-0.20;99.90;;;;;;5048663;28;19919;-57
2023/02/06 10:28:27;;;;;;;27.05;13.75;;;-0.20;99.90;;;;;;5039300;28;20025;-57
2023/02/06 10:31:22;;;;;;;27.50;15.95;;;-0.30;99.90;;;;;;5028773;28;20040;-57
2023/02/06 10:34:18;;;;;;;26.58;15.07;;;-0.40;99.90;;;;;;5044120;28;20041;-57
2023/02/06 10:36:56;;;;;;;30.53;13.13;;;-0.40;99.90;;;;;;5027800;28;20034;-58
2023/02/06 10:39:45;;;;;;;24.98;14.48;;;-0.40;99.90;;;;;;5028981;28;20271;-57
2023/02/06 10:42:17;;;;;;;23.50;13.13;;;-0.40;99.90;;;;;;5030409;28;20025;-57
2023/02/06 10:44:50;;;;;;;22.00;13.15;;;-0.40;99.90;;;;;;5048415;28;20018;-57
2023/02/06 10:47:46;;;;;;;20.90;11.68;;;-0.30;99.90;;;;;;5034957;28;20047;-57
2023/02/06 10:50:18;;;;;;;20.75;11.75;;;-0.30;99.90;;;;;;5052651;28;20112;-57
2023/02/06 10:52:44;;;;;;;22.05;12.93;;;-0.20;99.90;;;;;;5038864;28;20142;-58
2023/02/06 10:55:21;;;;;;;22.35;11.75;;;-0.10;99.90;;;;;;5052294;28;20029;-59
2023/02/06 10:57:49;;;;;;;26.50;13.02;;;-0.20;99.90;;;;;;5038977;28;20045;-60
2023/02/06 11:00:22;;;;;;;29.00;13.05;;;-0.20;99.90;;;;;;5052157;28;20083;-60
2023/02/06 11:02:54;;;;;;;26.40;11.77;;;-0.20;99.90;;;;;;5039284;28;20021;-60
2023/02/06 11:05:25;;;;;;;23.85;10.88;;;-0.10;99.90;;;;;;5039089;28;20028;-59
2023/02/06 11:08:16;;;;;;;21.40;11.48;;;-0.10;99.90;;;;;;5039635;28;20075;-59
2023/02/06 11:10:41;;;;;;;21.63;11.88;;;0.10;99.90;;;;;;5028885;28;20076;-60
2023/02/06 11:13:29;;;;;;;23.88;12.18;;;0.20;99.90;;;;;;5049455;28;20408;-60
2023/02/06 11:16:15;;;;;;;18.83;10.73;;;0.30;99.90;;;;;;5032155;28;20446;-60
2023/02/06 11:18:43;;;;;;;15.65;8.95;;;0.30;99.90;;;;;;5046321;28;20029;-59
2023/02/06 11:21:11;;;;;;;15.48;8.30;;;0.50;99.90;;;;;;5051842;28;20033;-59
2023/02/06 11:23:37;;;;;;;20.20;9.63;;;0.70;99.90;;;;;;5061294;28;20039;-59
2023/02/06 11:26:16;;;;;;;15.13;8.90;;;0.80;99.90;;;;;;5052348;28;20120;-60
2023/02/06 11:28:53;;;;;;;16.35;9.43;;;1.00;99.90;;;;;;5046097;28;20230;-59
2023/02/06 11:31:36;;;;;;;15.27;9.45;;;1.00;99.90;;;;;;5051700;28;20033;-60
2023/02/06 11:34:03;;;;;;;18.63;9.68;;;1.10;99.90;;;;;;5049018;28;20063;-60
2023/02/06 11:36:32;;;;;;;17.27;10.18;;;0.90;99.90;;;;;;5051516;28;20751;-59
2023/02/06 11:39:00;;;;;;;21.58;9.85;;;0.80;99.90;;;;;;5066534;28;20455;-59
2023/02/06 11:41:27;;;;;;;18.23;10.25;;;0.60;99.90;;;;;;5051704;28;20036;-58
2023/02/06 11:44:00;;;;;;;20.83;12.23;;;0.70;99.90;;;;;;5047936;28;20071;-59
2023/02/06 11:46:28;;;;;;;21.42;10.65;;;0.50;99.90;;;;;;5031552;28;20037;-59
2023/02/06 11:48:59;;;;;;;20.52;11.90;;;0.70;99.90;;;;;;5049361;28;20539;-59
2023/02/06 11:51:51;;;;;;;17.42;11.45;;;0.60;99.90;;;;;;5051244;28;20068;-59
2023/02/06 11:54:22;;;;;;;18.33;11.13;;;0.80;99.90;;;;;;5031758;28;20045;-60
2023/02/06 11:57:02;;;;;;;21.77;11.55;;;0.90;99.90;;;;;;5048841;28;20040;-60
2023/02/06 11:59:29;;;;;;;17.52;10.15;;;0.90;99.90;;;;;;5070016;28;20048;-59
2023/02/06 12:01:56;;;;;;;17.67;10.23;;;0.90;99.90;;;;;;5049622;28;20032;-59
2023/02/06 12:04:37;;;;;;;18.55;11.35;;;0.80;99.90;;;;;;5051365;28;20439;-62
2023/02/06 12:07:20;;;;;;;17.00;9.77;;;0.70;99.90;;;;;;5031645;28;20029;-59
2023/02/06 12:09:46;;;;;;;17.35;10.88;;;0.80;99.90;;;;;;5071088;28;20024;-60
2023/02/06 12:12:31;;;;;;;15.15;9.60;;;0.80;99.90;;;;;;5049392;28;20032;-60
2023/02/06 12:15:05;;;;;;;22.07;11.03;;;0.70;99.90;;;;;;5051029;28;20492;-60
2023/02/06 12:17:40;;;;;;;19.30;10.43;;;0.70;99.90;;;;;;5052219;28;20028;-59
2023/02/06 12:20:13;;;;;;;17.77;9.88;;;0.70;99.90;;;;;;5071111;28;20032;-60
2023/02/06 12:22:43;;;;;;;17.17;8.93;;;0.70;99.90;;;;;;5043800;28;20037;-59
2023/02/06 12:25:29;;;;;;;14.95;8.52;;;0.90;99.90;;;;;;5070838;28;20020;-59
2023/02/06 12:28:04;;;;;;;15.45;8.95;;;1.00;99.90;;;;;;5048213;28;20035;-60
2023/02/06 12:30:46;;;;;;;14.87;8.70;;;1.20;99.90;;;;;;5029432;28;20112;-59
2023/02/06 12:33:16;;;;;;;13.45;7.88;;;1.40;99.90;;;;;;5040805;28;20193;-60
2023/02/06 12:35:50;;;;;;;17.80;9.85;;;1.50;99.90;;;;;;5030690;28;20037;-60
2023/02/06 12:38:41;;;;;;;14.52;8.50;;;1.40;98.50;;;;;;5041414;28;20029;-60
2023/02/06 12:41:21;;;;;;;13.32;8.30;;;1.30;99.90;;;;;;5045369;28;20074;-60
2023/02/06 12:44:01;;;;;;;16.95;9.88;;;1.40;99.90;;;;;;5030697;28;20393;-59
2023/02/06 12:46:28;;;;;;;19.40;8.95;;;1.40;99.90;;;;;;5048213;28;20065;-60
2023/02/06 12:49:16;;;;;;;15.75;9.35;;;1.50;99.20;;;;;;5050347;28;20400;-60
2023/02/06 12:51:56;;;;;;;15.55;9.38;;;1.40;97.80;;;;;;5029214;28;20604;-60